createdAt,value
2022-11-13T00:01:21.139Z,100.00
2022-11-13T00:03:49.249Z,100.00
2022-11-13T00:06:18.338Z,100.00
2022-11-13T00:08:46.802Z,100.00
2022-11-13T00:11:18.365Z,100.00
2022-11-13T00:13:47.037Z,100.00
2022-11-13T00:16:18.619Z,100.00
2022-11-13T00:18:47.400Z,100.00
2022-11-13T00:21:18.295Z,100.00
2022-11-13T00:23:46.697Z,100.00
2022-11-13T00:26:17.264Z,100.00
2022-11-13T00:28:47.046Z,100.00
2022-11-13T00:31:17.115Z,100.00
2022-11-13T00:34:09.194Z,100.00
2022-11-13T00:36:33.289Z,100.00
2022-11-13T00:39:01.368Z,100.00
2022-11-13T00:41:29.553Z,100.00
2022-11-13T00:43:57.828Z,100.00
2022-11-13T00:46:27.329Z,100.00
2022-11-13T00:48:55.361Z,100.00
2022-11-13T00:51:24.094Z,100.00
2022-11-13T00:53:52.080Z,100.00
2022-11-13T00:56:20.267Z,100.00
2022-11-13T00:58:48.549Z,100.00
2022-11-13T01:01:19.773Z,100.00
2022-11-13T01:03:49.202Z,100.00
2022-11-13T01:06:21.150Z,100.00
2022-11-13T01:08:49.761Z,100.00
2022-11-13T01:11:20.608Z,100.00
2022-11-13T01:13:50.927Z,100.00
2022-11-13T01:16:20.936Z,100.00
2022-11-13T01:18:50.785Z,100.00
2022-11-13T01:21:20.729Z,100.00
2022-11-13T01:23:48.957Z,100.00
2022-11-13T01:26:19.322Z,100.00
2022-11-13T01:28:48.443Z,100.00
2022-11-13T01:31:18.893Z,100.00
2022-11-13T01:33:48.021Z,100.00
2022-11-13T01:36:18.883Z,100.00
2022-11-13T01:38:48.835Z,100.00
2022-11-13T01:41:23.336Z,100.00
2022-11-13T01:43:53.422Z,100.00
2022-11-13T01:46:28.301Z,100.00
2022-11-13T01:49:03.032Z,100.00
2022-11-13T01:51:37.011Z,100.00
2022-11-13T01:54:11.014Z,100.00
2022-11-13T01:56:39.070Z,100.00
2022-11-13T01:59:12.924Z,100.00
2022-11-13T02:01:41.307Z,100.00
2022-11-13T02:04:09.446Z,100.00
2022-11-13T02:06:44.301Z,100.00
2022-11-13T02:09:14.109Z,100.00
2022-11-13T02:11:43.119Z,100.00
2022-11-13T02:14:13.241Z,100.00
2022-11-13T02:16:43.801Z,100.00
2022-11-13T02:19:18.392Z,100.00
2022-11-13T02:21:55.665Z,100.00
2022-11-13T02:24:29.509Z,100.00
2022-11-13T02:27:02.821Z,100.00
2022-11-13T02:29:30.871Z,100.00
2022-11-13T02:31:59.229Z,100.00
2022-11-13T02:34:27.286Z,100.00
2022-11-13T02:36:55.409Z,100.00
2022-11-13T02:39:23.860Z,100.00
2022-11-13T02:41:53.232Z,100.00
2022-11-13T02:44:21.217Z,100.00
2022-11-13T02:46:49.229Z,100.00
2022-11-13T02:49:17.279Z,100.00
2022-11-13T02:51:45.393Z,100.00
2022-11-13T02:54:16.864Z,100.00
2022-11-13T02:56:45.456Z,100.00
2022-11-13T02:59:14.856Z,100.00
2022-11-13T03:01:42.920Z,100.00
2022-11-13T03:04:11.560Z,100.00
2022-11-13T03:06:40.027Z,100.00
2022-11-13T03:09:08.118Z,100.00
2022-11-13T03:11:36.201Z,100.00
2022-11-13T03:14:04.165Z,100.00
2022-11-13T03:16:33.488Z,100.00
2022-11-13T03:19:03.322Z,100.00
2022-11-13T03:21:32.193Z,100.00
2022-11-13T03:24:00.294Z,100.00
2022-11-13T03:26:28.823Z,100.00
2022-11-13T03:28:57.529Z,100.00
2022-11-13T03:31:25.582Z,100.00
2022-11-13T03:33:55.529Z,100.00
2022-11-13T03:36:23.630Z,100.00
2022-11-13T03:38:51.693Z,100.00
2022-11-13T03:41:19.723Z,100.00
2022-11-13T03:43:47.777Z,100.00
2022-11-13T03:46:15.842Z,100.00
2022-11-13T03:48:43.818Z,100.00
2022-11-13T03:51:13.539Z,100.00
2022-11-13T03:53:41.746Z,100.00
2022-11-13T03:56:09.815Z,100.00
2022-11-13T03:58:40.259Z,100.00
2022-11-13T04:01:08.644Z,100.00
2022-11-13T04:03:37.136Z,100.00
2022-11-13T04:06:05.462Z,100.00
2022-11-13T04:08:34.956Z,100.00
2022-11-13T04:11:13.978Z,100.00
2022-11-13T04:13:42.021Z,100.00
2022-11-13T04:16:10.353Z,100.00
2022-11-13T04:18:38.388Z,100.00
2022-11-13T04:21:06.949Z,100.00
2022-11-13T04:23:36.462Z,100.00
2022-11-13T04:26:04.641Z,100.00
2022-11-13T04:28:32.815Z,100.00
2022-11-13T04:31:01.038Z,100.00
2022-11-13T04:33:29.142Z,100.00
2022-11-13T04:35:57.282Z,100.00
2022-11-13T04:38:25.426Z,100.00
2022-11-13T04:41:15.517Z,100.00
2022-11-13T04:43:42.524Z,100.00
2022-11-13T04:46:10.581Z,100.00
2022-11-13T04:48:38.623Z,100.00
2022-11-13T04:51:07.462Z,100.00
2022-11-13T04:53:36.005Z,100.00
2022-11-13T04:56:05.980Z,100.00
2022-11-13T04:58:33.989Z,100.00
2022-11-13T05:01:01.989Z,100.00
2022-11-13T05:03:30.082Z,100.00
2022-11-13T05:06:04.374Z,100.00
2022-11-13T05:08:32.419Z,100.00
2022-11-13T05:11:00.524Z,100.00
2022-11-13T05:13:32.208Z,100.00
2022-11-13T05:16:05.007Z,100.00
2022-11-13T05:18:34.236Z,100.00
2022-11-13T05:21:02.640Z,100.00
2022-11-13T05:23:30.773Z,100.00
2022-11-13T05:26:04.044Z,100.00
2022-11-13T05:28:33.770Z,100.00
2022-11-13T05:31:06.304Z,100.00
2022-11-13T05:33:34.994Z,100.00
2022-11-13T05:36:03.773Z,100.00
2022-11-13T05:38:32.361Z,100.00
2022-11-13T05:41:04.881Z,100.00
2022-11-13T05:43:34.881Z,100.00
2022-11-13T05:46:04.957Z,100.00
2022-11-13T05:48:33.378Z,100.00
2022-11-13T05:51:05.114Z,100.00
2022-11-13T05:53:33.989Z,100.00
2022-11-13T05:56:02.839Z,100.00
2022-11-13T05:58:31.989Z,100.00
2022-11-13T06:01:10.629Z,100.00
2022-11-13T06:03:39.493Z,100.00
2022-11-13T06:06:08.990Z,100.00
2022-11-13T06:08:37.372Z,100.00
2022-11-13T06:11:08.142Z,100.00
2022-11-13T06:13:36.615Z,100.00
2022-11-13T06:16:06.725Z,100.00
2022-11-13T06:18:37.135Z,100.00
2022-11-13T06:21:06.597Z,100.00
2022-11-13T06:23:35.912Z,100.00
2022-11-13T06:26:05.638Z,100.00
2022-11-13T06:28:34.661Z,100.00
2022-11-13T06:31:04.818Z,100.00
2022-11-13T06:33:33.402Z,100.00
2022-11-13T06:36:05.340Z,100.00
2022-11-13T06:38:33.926Z,100.00
2022-11-13T06:41:02.894Z,100.00
2022-11-13T06:43:31.487Z,100.00
2022-11-13T06:46:00.679Z,100.00
2022-11-13T06:48:28.869Z,100.00
2022-11-13T06:50:57.076Z,100.00
2022-11-13T06:53:26.550Z,100.00
2022-11-13T06:55:54.737Z,100.00
2022-11-13T06:58:22.887Z,100.00
2022-11-13T07:00:51.241Z,100.00
2022-11-13T07:03:20.557Z,100.00
2022-11-13T07:05:49.900Z,100.00
2022-11-13T07:08:18.476Z,100.00
2022-11-13T07:10:54.605Z,100.00
2022-11-13T07:13:22.820Z,100.00
2022-11-13T07:15:50.887Z,100.00
2022-11-13T07:18:23.742Z,100.00
2022-11-13T07:20:52.124Z,100.00
2022-11-13T07:23:20.709Z,100.00
2022-11-13T07:25:50.266Z,100.00
2022-11-13T07:28:18.293Z,100.00
2022-11-13T07:30:46.575Z,100.00
2022-11-13T07:33:15.720Z,100.00
2022-11-13T07:35:43.836Z,100.00
2022-11-13T07:38:12.140Z,100.00
2022-11-13T07:40:40.125Z,100.00
2022-11-13T07:43:09.842Z,100.00
2022-11-13T07:45:37.946Z,100.00
2022-11-13T07:48:07.854Z,100.00
2022-11-13T07:50:38.838Z,100.00
2022-11-13T07:53:08.435Z,100.00
2022-11-13T07:55:37.341Z,100.00
2022-11-13T07:58:06.739Z,100.00
2022-11-13T08:00:37.040Z,100.00
2022-11-13T08:03:09.640Z,100.00
2022-11-13T08:05:38.746Z,100.00
2022-11-13T08:08:07.720Z,100.00
2022-11-13T08:10:37.412Z,100.00
2022-11-13T08:13:08.188Z,100.00
2022-11-13T08:15:37.819Z,100.00
2022-11-13T08:18:06.989Z,100.00
2022-11-13T08:20:35.510Z,100.00
2022-11-13T08:23:05.361Z,100.00
2022-11-13T08:25:34.753Z,100.00
2022-11-13T08:28:02.854Z,100.00
2022-11-13T08:30:31.028Z,100.00
2022-11-13T08:33:00.552Z,100.00
2022-11-13T08:35:29.731Z,100.00
2022-11-13T08:38:03.151Z,100.00
2022-11-13T08:40:31.618Z,100.00
2022-11-13T08:43:03.954Z,100.00
2022-11-13T08:45:32.774Z,100.00
2022-11-13T08:48:02.857Z,100.00
2022-11-13T08:50:32.291Z,100.00
2022-11-13T08:53:02.274Z,100.00
2022-11-13T08:55:30.641Z,100.00
2022-11-13T08:58:00.370Z,100.00
2022-11-13T09:00:29.334Z,100.00
2022-11-13T09:02:58.473Z,100.00
2022-11-13T09:05:28.510Z,100.00
2022-11-13T09:07:58.813Z,100.00
2022-11-13T09:10:27.725Z,100.00
2022-11-13T09:12:59.507Z,100.00
2022-11-13T09:15:27.567Z,100.00
2022-11-13T09:17:59.122Z,100.00
2022-11-13T09:20:28.826Z,100.00
2022-11-13T09:23:00.569Z,100.00
2022-11-13T09:25:35.810Z,100.00
2022-11-13T09:28:06.106Z,100.00
2022-11-13T09:30:34.435Z,100.00
2022-11-13T09:33:03.133Z,100.00
2022-11-13T09:35:37.152Z,100.00
2022-11-13T09:38:11.111Z,100.00
2022-11-13T09:40:45.410Z,100.00
2022-11-13T09:43:25.638Z,100.00
2022-11-13T09:45:59.473Z,100.00
2022-11-13T09:48:36.709Z,100.00
2022-11-13T09:51:14.526Z,100.00
2022-11-13T09:53:43.021Z,100.00
2022-11-13T09:56:28.587Z,100.00
2022-11-13T09:59:16.673Z,100.00
2022-11-13T10:01:53.930Z,100.00
2022-11-13T10:04:34.839Z,100.00
2022-11-13T10:07:15.588Z,100.00
2022-11-13T10:09:59.725Z,100.00
2022-11-13T10:12:30.145Z,100.00
2022-11-13T10:15:03.330Z,100.00
2022-11-13T10:17:40.467Z,100.00
2022-11-13T10:20:15.409Z,100.00
2022-11-13T10:22:51.045Z,100.00
2022-11-13T10:25:22.064Z,100.00
2022-11-13T10:27:55.382Z,100.00
2022-11-13T10:30:23.567Z,100.00
2022-11-13T10:32:52.471Z,100.00
2022-11-13T10:35:56.439Z,100.00
2022-11-13T10:38:33.664Z,100.00
2022-11-13T10:41:13.216Z,100.00
2022-11-13T10:43:53.541Z,100.00
2022-11-13T10:46:23.425Z,100.00
2022-11-13T10:48:51.591Z,100.00
2022-11-13T10:51:25.764Z,100.00
2022-11-13T10:53:56.442Z,100.00
2022-11-13T10:56:29.721Z,100.00
2022-11-13T10:59:03.164Z,100.00
2022-11-13T11:01:31.720Z,100.00
2022-11-13T11:03:59.760Z,100.00
2022-11-13T11:07:17.671Z,100.00
2022-11-13T11:09:29.796Z,100.00
2022-11-13T11:12:18.920Z,100.00
2022-11-13T11:15:11.472Z,100.00
2022-11-13T11:17:47.628Z,100.00
2022-11-13T11:20:25.015Z,99.18
2022-11-13T11:22:59.961Z,100.00
2022-11-13T11:25:36.830Z,100.00
2022-11-13T11:28:12.846Z,100.00
2022-11-13T11:30:48.596Z,100.00
2022-11-13T11:33:21.335Z,100.00
2022-11-13T11:35:55.367Z,100.00
2022-11-13T11:38:28.757Z,100.00
2022-11-13T11:41:07.642Z,100.00
2022-11-13T11:43:44.533Z,100.00
2022-11-13T11:46:14.551Z,100.00
2022-11-13T11:48:42.731Z,100.00
2022-11-13T11:51:20.997Z,100.00
2022-11-13T11:53:58.934Z,100.00
2022-11-13T11:56:35.205Z,100.00
2022-11-13T11:59:31.863Z,100.00
2022-11-13T12:02:29.965Z,100.00
2022-11-13T12:05:23.457Z,100.00
2022-11-13T12:08:08.831Z,100.00
2022-11-13T12:10:44.436Z,100.00
2022-11-13T12:13:27.261Z,100.00
2022-11-13T12:16:03.431Z,100.00
2022-11-13T12:18:40.807Z,100.00
2022-11-13T12:21:22.429Z,100.00
2022-11-13T12:24:03.800Z,100.00
2022-11-13T12:26:38.901Z,100.00
2022-11-13T12:29:22.396Z,100.00
2022-11-13T12:32:04.298Z,100.00
2022-11-13T12:34:39.447Z,100.00
2022-11-13T12:37:12.915Z,100.00
2022-11-13T12:39:47.622Z,100.00
2022-11-13T12:42:23.837Z,100.00
2022-11-13T12:45:03.428Z,100.00
2022-11-13T12:47:31.555Z,100.00
2022-11-13T12:50:01.194Z,100.00
2022-11-13T12:52:29.384Z,100.00
2022-11-13T12:55:10.496Z,100.00
2022-11-13T12:57:49.475Z,100.00
2022-11-13T13:00:28.442Z,99.64
2022-11-13T13:03:21.731Z,99.02
2022-11-13T13:06:13.517Z,98.65
2022-11-13T13:08:55.247Z,98.69
2022-11-13T13:11:32.784Z,98.40
2022-11-13T13:14:19.784Z,98.46
2022-11-13T13:16:49.343Z,96.42
2022-11-13T13:19:28.685Z,95.91
2022-11-13T13:21:58.174Z,95.61
2022-11-13T13:24:35.836Z,96.37
2022-11-13T13:27:21.667Z,96.09
2022-11-13T13:29:49.683Z,96.46
2022-11-13T13:32:24.276Z,95.80
2022-11-13T13:35:03.111Z,95.73
2022-11-13T13:37:38.238Z,95.33
2022-11-13T13:40:19.216Z,94.91
2022-11-13T13:43:02.957Z,94.59
2022-11-13T13:45:42.347Z,92.43
2022-11-13T13:48:13.678Z,91.60
2022-11-13T13:50:46.442Z,91.87
2022-11-13T13:53:18.396Z,92.70
2022-11-13T13:55:49.841Z,94.14
2022-11-13T13:58:24.370Z,95.19
2022-11-13T14:01:17.840Z,96.23
2022-11-13T14:03:48.598Z,95.52
2022-11-13T14:06:22.308Z,94.91
2022-11-13T14:08:50.701Z,96.00
2022-11-13T14:11:21.264Z,96.77
2022-11-13T14:13:49.650Z,97.29
2022-11-13T14:16:17.976Z,98.36
2022-11-13T14:18:46.147Z,98.93
2022-11-13T14:21:25.031Z,99.41
2022-11-13T14:23:55.450Z,99.91
2022-11-13T14:26:24.032Z,100.00
2022-11-13T14:28:56.607Z,100.00
2022-11-13T14:31:30.062Z,100.00
2022-11-13T14:34:01.291Z,100.00
2022-11-13T14:36:33.246Z,100.00
2022-11-13T14:39:01.658Z,100.00
2022-11-13T14:41:35.243Z,100.00
2022-11-13T14:44:03.887Z,100.00
2022-11-13T14:46:35.730Z,100.00
2022-11-13T14:49:05.241Z,100.00
2022-11-13T14:51:35.799Z,100.00
2022-11-13T14:54:08.911Z,100.00
2022-11-13T14:56:38.749Z,100.00
2022-11-13T14:59:16.869Z,100.00
2022-11-13T15:01:55.165Z,100.00
2022-11-13T15:04:23.348Z,100.00
2022-11-13T15:06:56.070Z,100.00
2022-11-13T15:09:26.576Z,100.00
2022-11-13T15:11:55.009Z,100.00
2022-11-13T15:14:24.131Z,100.00
2022-11-13T15:16:54.148Z,100.00
2022-11-13T15:19:34.574Z,100.00
2022-11-13T15:24:52.705Z,100.00
2022-11-13T15:27:21.201Z,100.00
2022-11-13T15:29:49.197Z,100.00
2022-11-13T15:32:17.371Z,100.00
2022-11-13T15:34:45.689Z,100.00
2022-11-13T15:37:17.331Z,100.00
2022-11-13T15:39:45.470Z,100.00
2022-11-13T15:42:16.602Z,100.00
2022-11-13T15:44:44.785Z,100.00
2022-11-13T15:47:28.975Z,100.00
2022-11-13T15:50:13.052Z,100.00
2022-11-13T15:52:46.680Z,100.00
2022-11-13T15:55:33.402Z,100.00
2022-11-13T15:58:01.879Z,100.00
2022-11-13T16:00:30.443Z,100.00
2022-11-13T16:02:59.380Z,100.00
2022-11-13T16:05:29.595Z,100.00
2022-11-13T16:07:59.472Z,100.00
2022-11-13T16:10:27.751Z,100.00
2022-11-13T16:12:56.676Z,100.00
2022-11-13T16:15:24.716Z,100.00
2022-11-13T16:17:58.191Z,100.00
2022-11-13T16:20:26.692Z,100.00
2022-11-13T16:22:55.083Z,100.00
2022-11-13T16:25:25.273Z,100.00
2022-11-13T16:27:53.809Z,100.00
2022-11-13T16:30:24.931Z,100.00
2022-11-13T16:32:53.043Z,100.00
2022-11-13T16:35:21.803Z,100.00
2022-11-13T16:37:49.806Z,100.00
2022-11-13T16:40:26.034Z,100.00
2022-11-13T16:42:54.854Z,100.00
2022-11-13T16:45:23.482Z,100.00
2022-11-13T16:47:51.923Z,100.00
2022-11-13T16:50:24.076Z,100.00
2022-11-13T16:52:52.679Z,100.00
2022-11-13T16:55:20.748Z,100.00
2022-11-13T16:57:50.375Z,100.00
2022-11-13T17:00:20.711Z,100.00
2022-11-13T17:02:51.606Z,100.00
2022-11-13T17:05:20.988Z,100.00
2022-11-13T17:07:50.909Z,100.00
2022-11-13T17:10:36.059Z,100.00
2022-11-13T17:13:06.543Z,100.00
2022-11-13T17:15:34.609Z,100.00
2022-11-13T17:18:03.113Z,100.00
2022-11-13T17:20:32.368Z,100.00
2022-11-13T17:23:00.452Z,100.00
2022-11-13T17:25:29.752Z,100.00
2022-11-13T17:27:57.742Z,100.00
2022-11-13T17:30:27.129Z,100.00
2022-11-13T17:32:55.103Z,100.00
2022-11-13T17:35:23.420Z,100.00
2022-11-13T17:37:51.505Z,100.00
2022-11-13T17:40:20.727Z,100.00
2022-11-13T17:42:49.657Z,100.00
2022-11-13T17:45:17.796Z,100.00
2022-11-13T17:47:47.233Z,100.00
2022-11-13T17:50:15.528Z,100.00
2022-11-13T17:52:43.684Z,100.00
2022-11-13T17:55:14.117Z,100.00
2022-11-13T17:57:42.263Z,100.00
2022-11-13T18:00:11.577Z,100.00
2022-11-13T18:02:40.155Z,100.00
2022-11-13T18:05:10.191Z,100.00
2022-11-13T18:07:40.234Z,100.00
2022-11-13T18:10:11.289Z,100.00
2022-11-13T18:12:39.528Z,100.00
2022-11-13T18:15:08.358Z,100.00
2022-11-13T18:17:36.471Z,100.00
2022-11-13T18:20:04.808Z,100.00
2022-11-13T18:22:34.251Z,100.00
2022-11-13T18:25:03.408Z,100.00
2022-11-13T18:27:31.851Z,100.00
2022-11-13T18:29:59.911Z,100.00
2022-11-13T18:32:28.594Z,100.00
2022-11-13T18:34:56.714Z,100.00
2022-11-13T18:37:24.767Z,100.00
2022-11-13T18:39:54.400Z,100.00
2022-11-13T18:42:26.323Z,100.00
2022-11-13T18:44:54.772Z,100.00
2022-11-13T18:47:23.614Z,100.00
2022-11-13T18:49:52.590Z,100.00
2022-11-13T18:52:20.646Z,100.00
2022-11-13T18:54:48.820Z,100.00
2022-11-13T18:57:18.344Z,100.00
2022-11-13T18:59:46.472Z,100.00
2022-11-13T19:02:14.766Z,100.00
2022-11-13T19:04:42.875Z,100.00
2022-11-13T19:07:12.545Z,100.00
2022-11-13T19:09:50.496Z,100.00
2022-11-13T19:12:20.047Z,100.00
2022-11-13T19:14:48.151Z,100.00
2022-11-13T19:17:16.341Z,100.00
2022-11-13T19:19:44.735Z,100.00
2022-11-13T19:22:12.887Z,100.00
2022-11-13T19:24:41.045Z,100.00
2022-11-13T19:27:09.204Z,100.00
2022-11-13T19:29:39.781Z,100.00
2022-11-13T19:32:07.891Z,100.00
2022-11-13T19:34:36.106Z,100.00
2022-11-13T19:37:04.252Z,100.00
2022-11-13T19:39:34.668Z,100.00
2022-11-13T19:42:02.815Z,100.00
2022-11-13T19:44:30.947Z,100.00
2022-11-13T19:47:00.454Z,100.00
2022-11-13T19:49:28.793Z,100.00
2022-11-13T19:51:57.752Z,100.00
2022-11-13T19:54:25.883Z,100.00
2022-11-13T19:56:54.055Z,100.00
2022-11-13T19:59:22.096Z,100.00
2022-11-13T20:01:50.974Z,100.00
2022-11-13T20:04:20.618Z,100.00
2022-11-13T20:06:48.892Z,100.00
2022-11-13T20:09:17.406Z,100.00
2022-11-13T20:11:45.919Z,100.00
2022-11-13T20:14:14.965Z,100.00
2022-11-13T20:16:43.381Z,100.00
2022-11-13T20:19:11.579Z,100.00
2022-11-13T20:21:41.363Z,100.00
2022-11-13T20:24:11.595Z,100.00
2022-11-13T20:26:39.585Z,100.00
2022-11-13T20:29:07.723Z,100.00
2022-11-13T20:31:36.094Z,100.00
2022-11-13T20:34:04.126Z,100.00
2022-11-13T20:36:32.138Z,100.00
2022-11-13T20:39:05.496Z,100.00
2022-11-13T20:41:37.120Z,100.00
2022-11-13T20:44:05.439Z,100.00
2022-11-13T20:46:33.493Z,100.00
2022-11-13T20:49:01.879Z,100.00
2022-11-13T20:51:30.548Z,100.00
2022-11-13T20:53:58.862Z,100.00
2022-11-13T20:56:28.761Z,100.00
2022-11-13T20:58:57.231Z,100.00
2022-11-13T21:01:27.340Z,100.00
2022-11-13T21:03:56.087Z,100.00
2022-11-13T21:06:26.033Z,100.00
2022-11-13T21:08:56.421Z,100.00
2022-11-13T21:11:26.591Z,100.00
2022-11-13T21:13:57.612Z,100.00
2022-11-13T21:16:27.751Z,100.00
2022-11-13T21:18:56.887Z,100.00
2022-11-13T21:21:26.418Z,100.00
2022-11-13T21:23:57.358Z,100.00
2022-11-13T21:26:25.620Z,100.00
2022-11-13T21:28:56.842Z,100.00
2022-11-13T21:31:24.978Z,100.00
2022-11-13T21:33:53.967Z,100.00
2022-11-13T21:36:23.774Z,100.00
2022-11-13T21:38:53.551Z,100.00
2022-11-13T21:41:23.416Z,100.00
2022-11-13T21:43:53.120Z,100.00
2022-11-13T21:46:24.036Z,100.00
2022-11-13T21:48:58.889Z,100.00
2022-11-13T21:51:27.261Z,100.00
2022-11-13T21:53:55.357Z,100.00
2022-11-13T21:56:23.799Z,100.00
2022-11-13T21:58:52.048Z,100.00
2022-11-13T22:01:20.425Z,100.00
2022-11-13T22:03:50.222Z,100.00
2022-11-13T22:06:21.296Z,100.00
2022-11-13T22:08:56.460Z,100.00
2022-11-13T22:11:25.221Z,100.00
2022-11-13T22:13:53.907Z,100.00
2022-11-13T22:16:22.761Z,100.00
2022-11-13T22:18:55.718Z,100.00
2022-11-13T22:21:24.787Z,100.00
2022-11-13T22:23:53.526Z,100.00
2022-11-13T22:26:22.789Z,100.00
2022-11-13T22:28:51.637Z,100.00
2022-11-13T22:31:22.268Z,100.00
2022-11-13T22:33:54.875Z,100.00
2022-11-13T22:36:27.485Z,100.00
2022-11-13T22:38:56.283Z,100.00
2022-11-13T22:41:27.835Z,100.00
2022-11-13T22:43:59.688Z,100.00
2022-11-13T22:46:29.507Z,100.00
2022-11-13T22:48:59.777Z,100.00
2022-11-13T22:51:30.767Z,100.00
2022-11-13T22:53:59.957Z,100.00
2022-11-13T22:56:30.054Z,100.00
2022-11-13T22:59:00.794Z,100.00
2022-11-13T23:01:30.869Z,100.00
2022-11-13T23:04:01.914Z,100.00
2022-11-13T23:06:34.038Z,100.00
2022-11-13T23:09:02.883Z,100.00
2022-11-13T23:11:33.652Z,100.00
2022-11-13T23:14:04.246Z,100.00
2022-11-13T23:16:34.204Z,100.00
2022-11-13T23:19:03.962Z,100.00
2022-11-13T23:21:33.817Z,100.00
2022-11-13T23:24:01.855Z,100.00
2022-11-13T23:26:30.249Z,100.00
2022-11-13T23:28:58.711Z,100.00
2022-11-13T23:31:26.785Z,100.00
2022-11-13T23:33:54.800Z,100.00
2022-11-13T23:36:22.760Z,100.00
2022-11-13T23:38:52.147Z,100.00
2022-11-13T23:41:20.197Z,100.00
2022-11-13T23:44:07.657Z,100.00
2022-11-13T23:46:36.315Z,100.00
2022-11-13T23:49:04.339Z,100.00
2022-11-13T23:51:33.080Z,100.00
2022-11-13T23:54:03.054Z,100.00
2022-11-13T23:56:31.091Z,100.00
2022-11-13T23:58:59.112Z,100.00
